Time;durP1;ratioP1;P1;durP2;ratioP2;P2;SDS_P1;SDS_P2;PMS_P1;PMS_P2;Temp;Humidity;BMP_temperature;BMP_pressure;BME280_temperature;BME280_humidity;BME280_pressure;Samples;Min_cycle;Max_cycle;Signal;HPM_P1;HPM_P2
2024/01/25 00:00:41;;;;;;;47.20;30.00;;;;;;;6.77;100.00;101594.84;4933652;29;20432;-34
2024/01/25 00:03:09;;;;;;;53.23;35.23;;;;;;;6.79;100.00;101587.56;4933437;29;20432;-36
2024/01/25 00:05:37;;;;;;;52.70;29.33;;;;;;;6.80;100.00;101605.16;4935483;29;20484;-34
2024/01/25 00:08:06;;;;;;;56.13;32.30;;;;;;;6.82;100.00;101605.00;4935464;28;20484;-34
2024/01/25 00:10:34;;;;;;;47.67;28.93;;;;;;;6.80;100.00;101588.41;4944104;29;20432;-34
2024/01/25 00:13:03;;;;;;;37.80;29.60;;;;;;;6.81;100.00;101596.19;4937411;29;20442;-34
2024/01/25 00:15:31;;;;;;;52.27;30.73;;;;;;;6.82;100.00;101602.34;4953838;29;20880;-34
2024/01/25 00:17:59;;;;;;;37.33;28.93;;;;;;;6.81;100.00;101611.31;4953211;28;20468;-34
2024/01/25 00:20:26;;;;;;;46.63;30.13;;;;;;;6.82;100.00;101597.03;4945126;29;20443;-36
2024/01/25 00:22:54;;;;;;;32.00;26.70;;;;;;;6.83;100.00;101596.06;4943304;29;20500;-34
2024/01/25 00:25:22;;;;;;;36.80;28.27;;;;;;;6.80;100.00;101606.97;4934596;29;20585;-34
2024/01/25 00:27:50;;;;;;;47.70;30.03;;;;;;;6.77;100.00;101586.91;4932875;28;20472;-34
2024/01/25 00:30:20;;;;;;;38.60;29.17;;;;;;;6.80;100.00;101591.91;4934310;29;20527;-34
2024/01/25 00:32:48;;;;;;;38.73;27.00;;;;;;;6.73;100.00;101596.13;4934295;29;20475;-37
2024/01/25 00:35:17;;;;;;;57.07;29.03;;;;;;;6.75;100.00;101596.00;4935435;29;20516;-34
2024/01/25 00:37:46;;;;;;;41.90;28.20;;;;;;;6.76;100.00;101587.88;4934380;28;20544;-33
2024/01/25 00:40:15;;;;;;;54.17;28.83;;;;;;;6.72;100.00;101588.34;4945731;29;20443;-38
2024/01/25 00:42:48;;;;;;;35.90;28.20;;;;;;;6.72;100.00;101601.59;4953405;29;20863;-34
2024/01/25 00:45:17;;;;;;;33.37;28.03;;;;;;;6.65;100.00;101599.56;4953870;29;20483;-34
2024/01/25 00:47:47;;;;;;;41.67;28.60;;;;;;;6.70;100.00;101601.75;4951647;28;20530;-34
2024/01/25 00:50:17;;;;;;;36.67;27.10;;;;;;;6.68;100.00;101601.06;4938782;29;21000;-34
2024/01/25 00:52:45;;;;;;;49.97;30.70;;;;;;;6.68;100.00;101598.41;4942089;28;20437;-35
2024/01/25 00:55:15;;;;;;;51.50;29.93;;;;;;;6.65;100.00;101604.84;4932821;29;20437;-34
2024/01/25 00:57:44;;;;;;;46.40;27.67;;;;;;;6.64;100.00;101591.72;4932189;28;20535;-34
2024/01/25 01:00:13;;;;;;;42.77;26.80;;;;;;;6.66;100.00;101598.53;4938358;29;20443;-34
2024/01/25 01:02:43;;;;;;;35.93;28.40;;;;;;;6.63;100.00;101621.91;4953179;29;20428;-34
2024/01/25 01:05:14;;;;;;;44.23;29.50;;;;;;;6.65;100.00;101601.38;4952589;29;20444;-35
2024/01/25 01:07:44;;;;;;;35.90;28.57;;;;;;;6.67;100.00;101615.28;4952016;28;20551;-34
2024/01/25 01:10:14;;;;;;;40.80;29.53;;;;;;;6.67;100.00;101615.28;4953434;29;20470;-35
2024/01/25 01:12:42;;;;;;;41.57;29.73;;;;;;;6.64;100.00;101620.88;4952206;29;20448;-34
2024/01/25 01:15:10;;;;;;;40.43;27.73;;;;;;;6.66;100.00;101614.44;4952507;29;20451;-34
2024/01/25 01:17:38;;;;;;;37.50;28.10;;;;;;;6.68;100.00;101612.50;4951208;28;20460;-35
2024/01/25 01:20:07;;;;;;;35.87;30.57;;;;;;;6.75;100.00;101627.81;4934074;29;20449;-33
2024/01/25 01:22:36;;;;;;;37.67;29.03;;;;;;;6.74;100.00;101637.56;4933779;29;20444;-34
2024/01/25 01:25:05;;;;;;;43.67;29.37;;;;;;;6.72;100.00;101642.16;4951672;29;20431;-35
2024/01/25 01:27:33;;;;;;;34.47;29.10;;;;;;;6.72;100.00;101639.50;4951245;28;20463;-34
2024/01/25 01:30:01;;;;;;;37.57;28.33;;;;;;;6.74;100.00;101655.28;4952117;29;20439;-34
2024/01/25 01:32:29;;;;;;;41.90;28.17;;;;;;;6.73;100.00;101659.75;4954414;29;20510;-34
2024/01/25 01:34:57;;;;;;;42.37;28.93;;;;;;;6.76;100.00;101643.53;4956124;29;20868;-35
2024/01/25 01:37:25;;;;;;;40.37;30.10;;;;;;;6.75;100.00;101655.13;4950920;28;20534;-38
2024/01/25 01:39:55;;;;;;;28.83;26.03;;;;;;;6.69;100.00;101661.84;4951372;29;20431;-35
2024/01/25 01:42:23;;;;;;;40.23;30.33;;;;;;;6.74;100.00;101658.78;4950474;29;20531;-36
2024/01/25 01:44:52;;;;;;;50.73;30.30;;;;;;;6.77;100.00;101671.75;4950832;29;20486;-34
2024/01/25 01:47:21;;;;;;;42.07;28.27;;;;;;;6.79;100.00;101666.28;4951856;28;20479;-35
2024/01/25 01:49:49;;;;;;;39.80;27.40;;;;;;;6.85;100.00;101674.47;4951294;29;20436;-36
2024/01/25 01:52:18;;;;;;;38.70;27.97;;;;;;;6.78;100.00;101673.38;4951317;29;20595;-36
2024/01/25 01:54:47;;;;;;;35.40;27.37;;;;;;;6.76;100.00;101672.72;4942131;29;20443;-36
2024/01/25 01:57:17;;;;;;;48.43;28.43;;;;;;;6.76;100.00;101693.06;4932393;28;20472;-35
2024/01/25 01:59:45;;;;;;;33.97;27.30;;;;;;;6.80;100.00;101675.91;4932745;29;20606;-36
2024/01/25 02:02:13;;;;;;;40.70;28.03;;;;;;;6.78;100.00;101684.00;4931944;29;20978;-36
2024/01/25 02:04:42;;;;;;;34.60;27.00;;;;;;;6.80;100.00;101684.69;4933416;29;20468;-35
2024/01/25 02:07:10;;;;;;;42.17;27.57;;;;;;;6.79;100.00;101683.00;4930557;28;20476;-36
2024/01/25 02:09:38;;;;;;;36.53;28.10;;;;;;;6.76;100.00;101698.38;4931299;29;20444;-37
2024/01/25 02:12:07;;;;;;;49.43;29.10;;;;;;;6.79;100.00;101704.22;4930659;29;20437;-35
2024/01/25 02:14:36;;;;;;;37.07;28.57;;;;;;;6.76;100.00;101706.34;4930990;29;20468;-36
2024/01/25 02:17:04;;;;;;;39.97;28.77;;;;;;;6.80;100.00;101719.16;4931170;28;20475;-41
2024/01/25 02:19:31;;;;;;;39.60;27.63;;;;;;;6.79;100.00;101706.88;4933538;29;20463;-36
2024/01/25 02:22:00;;;;;;;37.57;28.30;;;;;;;6.78;100.00;101715.78;4931439;29;20437;-34
2024/01/25 02:24:29;;;;;;;46.00;27.47;;;;;;;6.77;100.00;101722.09;4932180;29;20433;-36
2024/01/25 02:26:57;;;;;;;48.97;29.70;;;;;;;6.78;100.00;101715.00;4931091;28;20475;-37
2024/01/25 02:29:25;;;;;;;41.17;29.67;;;;;;;6.76;100.00;101715.13;4932458;29;20443;-36
2024/01/25 02:31:53;;;;;;;31.57;27.63;;;;;;;6.71;100.00;101728.00;4932927;29;20532;-36
2024/01/25 02:34:21;;;;;;;42.80;27.70;;;;;;;6.69;100.00;101733.44;4932218;29;20512;-35
2024/01/25 02:36:49;;;;;;;32.27;28.73;;;;;;;6.73;100.00;101746.38;4931213;28;20491;-39
2024/01/25 02:39:17;;;;;;;39.47;27.53;;;;;;;6.79;100.00;101741.34;4932796;29;20479;-35
2024/01/25 02:41:47;;;;;;;39.23;26.73;;;;;;;6.78;100.00;101742.31;4931076;29;20587;-35
2024/01/25 02:44:14;;;;;;;36.40;27.33;;;;;;;6.74;100.00;101735.66;4931398;29;20441;-36
2024/01/25 02:46:44;;;;;;;41.07;26.70;;;;;;;6.76;100.00;101717.78;4937719;28;21414;-35
2024/01/25 02:49:12;;;;;;;40.30;26.57;;;;;;;6.72;100.00;101737.59;4930493;29;20466;-36
2024/01/25 02:51:40;;;;;;;41.23;26.80;;;;;;;6.80;100.00;101750.97;4938483;29;20435;-36
2024/01/25 02:54:08;;;;;;;41.30;27.40;;;;;;;6.72;100.00;101753.50;4946319;29;20807;-36
2024/01/25 02:56:36;;;;;;;52.00;27.20;;;;;;;6.72;100.00;101756.16;4930269;28;20461;-38
2024/01/25 02:59:05;;;;;;;31.47;26.60;;;;;;;6.76;100.00;101767.31;4941196;29;20527;-35
2024/01/25 03:01:39;;;;;;;35.27;26.17;;;;;;;6.73;100.00;101784.34;4949784;29;20444;-36
2024/01/25 03:04:07;;;;;;;30.67;26.00;;;;;;;6.72;100.00;101780.00;4949179;29;20969;-35
2024/01/25 03:06:35;;;;;;;37.60;27.60;;;;;;;6.72;100.00;101780.00;4948786;28;20482;-36
2024/01/25 03:09:04;;;;;;;38.43;26.47;;;;;;;6.65;100.00;101793.03;4949687;29;20880;-36
2024/01/25 03:11:32;;;;;;;44.77;26.40;;;;;;;6.66;100.00;101789.38;4949595;29;20440;-35
2024/01/25 03:14:00;;;;;;;37.30;26.90;;;;;;;6.61;100.00;101799.59;4949163;29;20446;-35
2024/01/25 03:16:29;;;;;;;31.23;26.07;;;;;;;6.67;100.00;101784.94;4950935;28;21033;-36
2024/01/25 03:18:57;;;;;;;34.27;26.50;;;;;;;6.61;100.00;101775.75;4954571;29;20442;-36
2024/01/25 03:21:25;;;;;;;45.10;27.40;;;;;;;6.64;100.00;101783.41;4953122;29;20467;-34
2024/01/25 03:23:53;;;;;;;36.97;26.57;;;;;;;6.60;100.00;101795.25;4952994;29;20963;-35
2024/01/25 03:26:21;;;;;;;40.70;27.87;;;;;;;6.64;100.00;101799.31;4952526;28;20518;-36
2024/01/25 03:28:48;;;;;;;31.27;25.60;;;;;;;6.61;100.00;101780.19;4953484;29;20983;-36
2024/01/25 03:31:17;;;;;;;41.43;26.60;;;;;;;6.64;100.00;101807.25;4954671;29;20440;-35
2024/01/25 03:33:46;;;;;;;37.03;25.17;;;;;;;6.66;100.00;101799.16;4953658;29;20446;-36
2024/01/25 03:36:15;;;;;;;36.50;28.57;;;;;;;6.62;100.00;101809.22;4940434;28;20468;-34
2024/01/25 03:38:43;;;;;;;33.30;25.80;;;;;;;6.56;100.00;101811.63;4935025;29;20492;-36
2024/01/25 03:41:11;;;;;;;42.90;28.60;;;;;;;6.55;100.00;101815.25;4934810;29;20487;-36
2024/01/25 03:43:39;;;;;;;34.70;27.60;;;;;;;6.55;100.00;101813.44;4933999;29;20437;-37
2024/01/25 03:46:11;;;;;;;33.67;26.67;;;;;;;6.54;100.00;101816.25;4932954;28;20476;-36
2024/01/25 03:48:39;;;;;;;39.00;26.70;;;;;;;6.54;100.00;101818.88;4933905;29;20472;-36
2024/01/25 03:51:09;;;;;;;41.93;26.93;;;;;;;6.53;100.00;101830.47;4933390;29;20468;-35
2024/01/25 03:53:37;;;;;;;38.03;27.23;;;;;;;6.53;100.00;101841.06;4933554;29;20528;-35
2024/01/25 03:56:11;;;;;;;32.30;25.10;;;;;;;6.52;100.00;101855.28;4933176;28;20456;-36
2024/01/25 03:58:39;;;;;;;29.70;26.70;;;;;;;6.49;100.00;101850.25;4933303;29;20456;-36
2024/01/25 04:01:06;;;;;;;36.73;25.50;;;;;;;6.43;100.00;101842.88;4933078;29;20564;-39
2024/01/25 04:03:34;;;;;;;35.20;26.13;;;;;;;6.41;100.00;101856.28;4935193;29;20440;-38
2024/01/25 04:06:02;;;;;;;47.43;26.60;;;;;;;6.37;100.00;101854.03;4942957;28;20471;-35
2024/01/25 04:08:32;;;;;;;35.43;27.10;;;;;;;6.35;100.00;101869.25;4953235;28;20483;-39
2024/01/25 04:10:59;;;;;;;37.43;28.10;;;;;;;6.35;100.00;101848.91;4951982;29;20530;-36
2024/01/25 04:13:27;;;;;;;30.57;27.43;;;;;;;6.32;100.00;101862.44;4952568;29;20478;-35
2024/01/25 04:15:55;;;;;;;44.57;28.90;;;;;;;6.30;100.00;101856.41;4951929;28;21351;-36
2024/01/25 04:18:23;;;;;;;37.13;25.80;;;;;;;6.25;100.00;101868.44;4953166;29;20436;-36
2024/01/25 04:20:51;;;;;;;42.60;28.17;;;;;;;6.20;100.00;101886.56;4952766;29;20776;-34
2024/01/25 04:23:19;;;;;;;49.20;28.63;;;;;;;6.23;100.00;101876.53;4953142;29;20444;-38
2024/01/25 04:25:48;;;;;;;41.93;26.70;;;;;;;6.23;100.00;101884.47;4952267;28;20459;-34
2024/01/25 04:28:16;;;;;;;32.40;25.87;;;;;;;6.23;100.00;101880.97;4952685;28;20475;-36
2024/01/25 04:30:44;;;;;;;34.57;27.77;;;;;;;6.26;100.00;101891.31;4952922;29;20952;-38
2024/01/25 04:33:12;;;;;;;46.40;27.37;;;;;;;6.27;100.00;101877.94;4952216;29;20486;-36
2024/01/25 04:35:40;;;;;;;51.23;26.93;;;;;;;6.24;100.00;101894.09;4945354;29;21003;-36
2024/01/25 04:38:08;;;;;;;35.00;28.30;;;;;;;6.26;100.00;101892.13;4934326;28;20549;-36
2024/01/25 04:40:36;;;;;;;37.87;29.60;;;;;;;6.25;100.00;101897.56;4947106;29;21007;-36
2024/01/25 04:43:05;;;;;;;37.17;29.00;;;;;;;6.21;100.00;101890.91;4950999;29;20448;-34
2024/01/25 04:45:33;;;;;;;38.67;26.10;;;;;;;6.19;100.00;101895.47;4953476;29;21100;-38
2024/01/25 04:48:01;;;;;;;35.90;24.03;;;;;;;6.19;100.00;101906.06;4951757;28;20487;-36
2024/01/25 04:50:29;;;;;;;34.90;25.13;;;;;;;6.22;100.00;101893.38;4952787;29;20515;-35
2024/01/25 04:52:57;;;;;;;37.07;25.97;;;;;;;6.22;100.00;101903.97;4951689;29;20436;-38
2024/01/25 04:55:27;;;;;;;26.60;23.50;;;;;;;6.26;100.00;101892.13;4952660;29;20436;-35
2024/01/25 04:57:55;;;;;;;31.20;25.20;;;;;;;6.30;100.00;101896.16;4952367;28;20455;-35
2024/01/25 05:00:24;;;;;;;36.47;25.60;;;;;;;6.33;100.00;101916.25;4951956;29;20502;-34
2024/01/25 05:02:52;;;;;;;49.70;29.30;;;;;;;6.34;100.00;101909.97;4951044;29;20482;-37
2024/01/25 05:05:20;;;;;;;33.70;27.20;;;;;;;6.30;100.00;101912.06;4936291;29;20467;-36
2024/01/25 05:07:48;;;;;;;32.67;26.10;;;;;;;6.30;100.00;101916.53;4951227;28;20471;-36
2024/01/25 05:10:16;;;;;;;46.90;26.97;;;;;;;6.27;100.00;101928.25;4944141;29;20964;-38
2024/01/25 05:12:44;;;;;;;34.87;26.43;;;;;;;6.24;100.00;101935.63;4952725;29;20443;-36
2024/01/25 05:15:13;;;;;;;31.13;28.23;;;;;;;6.24;100.00;101930.34;4943732;29;20530;-36
2024/01/25 05:17:42;;;;;;;35.23;27.73;;;;;;;6.26;100.00;101929.22;4951531;28;20460;-38
2024/01/25 05:20:10;;;;;;;47.43;28.90;;;;;;;6.24;100.00;101940.94;4952042;29;20937;-34
2024/01/25 05:22:41;;;;;;;38.53;26.80;;;;;;;6.20;100.00;101958.06;4950928;29;20444;-36
2024/01/25 05:25:09;;;;;;;45.97;29.10;;;;;;;6.20;100.00;101944.84;4933572;28;20508;-36
2024/01/25 05:27:37;;;;;;;40.80;27.30;;;;;;;6.19;100.00;101965.19;4945618;28;20459;-36
2024/01/25 05:30:07;;;;;;;40.00;27.57;;;;;;;6.23;100.00;101969.25;4951078;29;20495;-36
2024/01/25 05:32:35;;;;;;;30.80;27.03;;;;;;;6.22;100.00;101964.06;4945511;29;20483;-34
2024/01/25 05:35:05;;;;;;;32.50;26.80;;;;;;;6.20;100.00;101987.22;4948892;29;20443;-36
2024/01/25 05:37:33;;;;;;;31.90;28.50;;;;;;;6.21;100.00;101989.75;4951121;28;20491;-36
2024/01/25 05:40:01;;;;;;;38.97;28.07;;;;;;;6.23;100.00;101974.53;4950954;28;20443;-36
2024/01/25 05:42:29;;;;;;;52.27;29.30;;;;;;;6.22;100.00;101998.50;4950855;28;20432;-36
2024/01/25 05:44:57;;;;;;;35.07;27.73;;;;;;;6.21;100.00;102004.78;4942779;29;20855;-36
2024/01/25 05:47:25;;;;;;;33.80;26.53;;;;;;;6.19;100.00;102004.91;4950050;28;20467;-36
2024/01/25 05:49:53;;;;;;;37.93;27.67;;;;;;;6.22;100.00;102019.69;4950783;29;20525;-36
2024/01/25 05:52:22;;;;;;;42.10;28.00;;;;;;;6.23;100.00;102019.56;4942572;29;20444;-39
2024/01/25 05:54:50;;;;;;;32.77;28.77;;;;;;;6.20;100.00;102024.28;4942963;29;20443;-36
2024/01/25 05:57:19;;;;;;;35.73;28.07;;;;;;;6.21;100.00;102048.00;4942317;28;20463;-35
2024/01/25 05:59:47;;;;;;;28.23;25.30;;;;;;;6.17;100.00;102038.66;4950750;28;20464;-36
2024/01/25 06:02:15;;;;;;;33.47;27.97;;;;;;;6.20;100.00;102054.28;4951081;29;20468;-36
2024/01/25 06:04:43;;;;;;;33.93;25.37;;;;;;;6.22;100.00;102062.06;4951822;29;20435;-36
2024/01/25 06:07:12;;;;;;;27.77;25.07;;;;;;;6.24;100.00;102066.28;4931892;28;20475;-36
2024/01/25 06:09:41;;;;;;;31.33;25.83;;;;;;;6.26;100.00;102066.97;4937470;29;20472;-36
2024/01/25 06:12:09;;;;;;;28.33;25.00;;;;;;;6.26;100.00;102063.47;4950040;29;20458;-39
2024/01/25 06:14:38;;;;;;;35.30;26.60;;;;;;;6.27;100.00;102063.34;4945038;29;20932;-35
2024/01/25 06:17:06;;;;;;;33.60;27.10;;;;;;;6.28;100.00;102050.94;4932098;28;20524;-36
2024/01/25 06:19:34;;;;;;;29.93;27.03;;;;;;;6.32;100.00;102068.22;4950321;29;20432;-38
2024/01/25 06:22:02;;;;;;;34.03;28.10;;;;;;;6.33;100.00;102070.72;4950206;29;20486;-36
2024/01/25 06:24:31;;;;;;;35.43;28.30;;;;;;;6.32;100.00;102079.69;4937953;29;20453;-36
2024/01/25 06:27:00;;;;;;;28.73;25.63;;;;;;;6.29;100.00;102077.28;4938901;28;20467;-34
2024/01/25 06:29:28;;;;;;;46.60;30.07;;;;;;;6.33;100.00;102078.69;4949832;29;21058;-38
2024/01/25 06:31:56;;;;;;;30.87;27.60;;;;;;;6.34;100.00;102090.13;4950015;29;20442;-36
2024/01/25 06:34:23;;;;;;;45.93;27.40;;;;;;;6.32;100.00;102092.06;4946679;29;20462;-34
2024/01/25 06:36:52;;;;;;;35.23;26.50;;;;;;;6.33;100.00;102099.88;4930483;28;20464;-38
2024/01/25 06:39:20;;;;;;;38.63;27.67;;;;;;;6.36;100.00;102107.56;4941991;29;20958;-34
2024/01/25 06:41:48;;;;;;;46.93;27.47;;;;;;;6.32;100.00;102119.41;4935109;28;20846;-35
2024/01/25 06:44:18;;;;;;;29.07;25.37;;;;;;;6.32;100.00;102126.53;4930893;29;20433;-36
2024/01/25 06:46:46;;;;;;;36.30;25.90;;;;;;;6.33;100.00;102120.25;4945014;28;20491;-36
2024/01/25 06:49:14;;;;;;;30.00;26.03;;;;;;;6.33;100.00;102133.50;4941227;29;20475;-38
2024/01/25 06:51:42;;;;;;;35.70;26.63;;;;;;;6.28;100.00;102136.53;4941189;28;20814;-39
2024/01/25 06:54:10;;;;;;;39.60;26.30;;;;;;;6.30;100.00;102136.41;4949462;29;20478;-36
2024/01/25 06:56:38;;;;;;;34.33;27.00;;;;;;;6.26;100.00;102138.50;4949280;28;20476;-36
2024/01/25 06:59:06;;;;;;;31.17;27.13;;;;;;;6.26;100.00;102138.50;4933156;28;20520;-38
2024/01/25 07:01:36;;;;;;;31.00;27.80;;;;;;;6.26;100.00;102141.16;4943739;29;20439;-38
2024/01/25 07:04:04;;;;;;;32.00;28.60;;;;;;;6.32;100.00;102135.31;4949107;29;20446;-39
2024/01/25 07:06:32;;;;;;;29.73;26.10;;;;;;;6.30;100.00;102141.72;4929895;28;21030;-36
2024/01/25 07:09:00;;;;;;;31.60;28.40;;;;;;;6.26;100.00;102133.19;4946584;29;20987;-36
2024/01/25 07:11:28;;;;;;;40.80;28.00;;;;;;;6.26;100.00;102127.91;4937797;29;20476;-36
2024/01/25 07:13:56;;;;;;;30.03;27.23;;;;;;;6.21;100.00;102126.63;4937633;29;20867;-36
2024/01/25 07:16:24;;;;;;;32.90;27.33;;;;;;;6.20;100.00;102138.19;4930093;28;20460;-39
2024/01/25 07:18:53;;;;;;;39.97;26.67;;;;;;;6.18;100.00;102148.94;4931191;29;20798;-36
2024/01/25 07:21:21;;;;;;;29.73;25.93;;;;;;;6.24;100.00;102152.84;4930390;29;20443;-35
2024/01/25 07:23:49;;;;;;;34.83;28.07;;;;;;;6.22;100.00;102152.13;4930610;29;20958;-38
2024/01/25 07:26:18;;;;;;;32.17;26.57;;;;;;;6.18;100.00;102153.38;4933263;28;20467;-38
2024/01/25 07:28:46;;;;;;;44.57;26.90;;;;;;;6.21;100.00;102153.13;4943179;29;20448;-36
2024/01/25 07:31:14;;;;;;;35.07;27.60;;;;;;;6.18;100.00;102153.38;4931577;29;20492;-34
2024/01/25 07:33:42;;;;;;;35.10;27.27;;;;;;;6.20;100.00;102151.44;4943482;29;20441;-39
2024/01/25 07:36:12;;;;;;;28.67;25.70;;;;;;;6.18;100.00;102154.22;4938862;28;20535;-34
2024/01/25 07:38:42;;;;;;;37.00;26.60;;;;;;;6.19;100.00;102153.25;4949513;29;20443;-36
2024/01/25 07:41:10;;;;;;;38.00;26.00;;;;;;;6.18;100.00;102163.97;4941210;29;21105;-35
2024/01/25 07:43:38;;;;;;;41.47;25.67;;;;;;;6.14;100.00;102168.69;4949366;28;20474;-36
2024/01/25 07:46:06;;;;;;;37.07;26.17;;;;;;;6.17;100.00;102171.09;4948542;28;20460;-34
2024/01/25 07:48:34;;;;;;;39.97;27.23;;;;;;;6.18;100.00;102169.28;4949959;29;20955;-36
2024/01/25 07:51:02;;;;;;;32.57;26.23;;;;;;;6.19;100.00;102186.84;4950229;29;20479;-40
2024/01/25 07:53:32;;;;;;;30.47;26.90;;;;;;;6.18;100.00;102193.97;4941571;29;20815;-36
2024/01/25 07:56:00;;;;;;;31.27;26.33;;;;;;;6.19;100.00;102186.84;4933282;28;20515;-35
2024/01/25 07:58:30;;;;;;;35.37;26.67;;;;;;;6.21;100.00;102198.16;4941575;29;20488;-38
2024/01/25 08:00:58;;;;;;;33.87;25.00;;;;;;;6.21;100.00;102196.34;4934695;29;21028;-35
2024/01/25 08:03:26;;;;;;;27.37;23.90;;;;;;;6.22;100.00;102205.09;4952715;28;20519;-35
2024/01/25 08:05:54;;;;;;;34.97;27.17;;;;;;;6.25;100.00;102210.97;4953207;28;20466;-36
2024/01/25 08:08:22;;;;;;;32.27;26.33;;;;;;;6.30;100.00;102215.91;4950964;29;20457;-40
2024/01/25 08:10:51;;;;;;;42.90;27.67;;;;;;;6.32;100.00;102203.34;4939625;29;20541;-35
2024/01/25 08:13:19;;;;;;;37.13;25.90;;;;;;;6.32;100.00;102203.34;4953529;29;20526;-37
2024/01/25 08:15:47;;;;;;;37.93;25.77;;;;;;;6.33;100.00;102205.84;4944775;28;20908;-36
2024/01/25 08:18:15;;;;;;;32.00;25.80;;;;;;;6.37;100.00;102201.97;4952622;29;20440;-36
2024/01/25 08:20:42;;;;;;;29.03;25.30;;;;;;;6.41;100.00;102211.34;4939603;29;21195;-38
2024/01/25 08:23:11;;;;;;;39.47;26.60;;;;;;;6.40;100.00;102207.00;4949984;29;20538;-38
2024/01/25 08:25:39;;;;;;;29.60;26.70;;;;;;;6.44;100.00;102215.53;4944902;29;20535;-38
2024/01/25 08:28:08;;;;;;;39.17;25.53;;;;;;;6.44;100.00;102219.03;4943997;28;20470;-36
2024/01/25 08:30:36;;;;;;;27.60;24.67;;;;;;;6.46;100.00;102224.19;4948122;29;20484;-36
2024/01/25 08:33:06;;;;;;;35.57;25.30;;;;;;;6.43;100.00;102224.44;4941568;29;20928;-35
2024/01/25 08:35:34;;;;;;;38.83;26.03;;;;;;;6.48;100.00;102224.91;4941473;29;20574;-36
2024/01/25 08:38:02;;;;;;;29.70;25.57;;;;;;;6.45;100.00;102236.59;4941762;28;20470;-37
2024/01/25 08:40:30;;;;;;;27.67;24.77;;;;;;;6.44;100.00;102231.44;4933614;29;20461;-39
2024/01/25 08:42:58;;;;;;;29.07;25.20;;;;;;;6.46;100.00;102232.13;4934382;29;20540;-39
2024/01/25 08:45:27;;;;;;;32.63;26.20;;;;;;;6.48;100.00;102233.66;4949598;29;20452;-43
2024/01/25 08:47:55;;;;;;;34.40;24.57;;;;;;;6.50;100.00;102236.19;4949330;28;20471;-39
2024/01/25 08:50:24;;;;;;;28.23;24.90;;;;;;;6.50;100.00;102234.38;4955545;29;20475;-39
2024/01/25 08:52:54;;;;;;;39.03;26.97;;;;;;;6.53;100.00;102247.38;4949385;29;20470;-36
2024/01/25 08:55:22;;;;;;;41.27;26.33;;;;;;;6.59;100.00;102251.28;4942212;29;20523;-41
2024/01/25 08:57:51;;;;;;;34.00;25.90;;;;;;;6.56;100.00;102263.00;4946501;28;20463;-40
2024/01/25 09:00:19;;;;;;;32.70;25.83;;;;;;;6.61;100.00;102263.44;4943061;29;20428;-35
2024/01/25 09:02:48;;;;;;;38.83;28.03;;;;;;;6.63;100.00;102273.94;4933404;29;20520;-38
2024/01/25 09:05:16;;;;;;;32.63;26.60;;;;;;;6.66;100.00;102273.63;4933818;29;20468;-36
2024/01/25 09:07:44;;;;;;;40.57;25.73;;;;;;;6.69;100.00;102281.31;4944763;28;20496;-38
2024/01/25 09:10:13;;;;;;;33.60;25.60;;;;;;;6.73;100.00;102279.22;4952965;29;20483;-38
2024/01/25 09:12:41;;;;;;;33.77;25.97;;;;;;;6.76;100.00;102277.16;4953289;28;20431;-40
2024/01/25 09:15:10;;;;;;;30.07;25.53;;;;;;;6.81;100.00;102277.59;4951569;29;20442;-38
2024/01/25 09:17:38;;;;;;;36.07;26.57;;;;;;;6.84;100.00;102285.28;4951233;28;20547;-35
2024/01/25 09:20:10;;;;;;;27.77;25.00;;;;;;;6.84;100.00;102284.47;4951676;29;21010;-38
2024/01/25 09:22:38;;;;;;;35.57;26.83;;;;;;;6.92;100.00;102285.47;4951489;29;20955;-41
2024/01/25 09:25:07;;;;;;;33.87;26.50;;;;;;;6.89;100.00;102283.06;4951717;29;20443;-38
2024/01/25 09:27:38;;;;;;;32.27;26.57;;;;;;;6.91;100.00;102281.13;4948534;28;20511;-40
2024/01/25 09:30:07;;;;;;;29.23;26.70;;;;;;;6.98;100.00;102292.03;4935648;29;20499;-40
2024/01/25 09:32:36;;;;;;;41.17;29.07;;;;;;;7.02;100.00;102296.91;4943029;29;20439;-38
2024/01/25 09:35:04;;;;;;;29.40;26.27;;;;;;;7.01;100.00;102300.56;4950501;29;20436;-39
2024/01/25 09:37:33;;;;;;;31.63;26.13;;;;;;;7.06;100.00;102305.44;4948078;28;20844;-38
2024/01/25 09:40:03;;;;;;;28.87;26.23;;;;;;;7.08;100.00;102300.84;4939490;29;20800;-38
2024/01/25 09:42:31;;;;;;;50.97;27.10;;;;;;;7.09;100.00;102302.53;4951962;29;20551;-36
2024/01/25 09:44:59;;;;;;;30.73;25.73;;;;;;;7.04;100.00;102305.59;4943775;29;20465;-38
2024/01/25 09:47:28;;;;;;;35.63;26.00;;;;;;;7.13;100.00;102310.09;4949396;28;20475;-39
2024/01/25 09:49:56;;;;;;;31.13;26.13;;;;;;;7.11;100.00;102321.78;4950961;29;20440;-40
2024/01/25 09:52:25;;;;;;;35.80;26.80;;;;;;;7.06;100.00;102321.34;4951335;29;20483;-39
2024/01/25 09:54:56;;;;;;;32.50;27.23;;;;;;;7.02;100.00;102318.13;4948532;29;20528;-40
2024/01/25 09:57:28;;;;;;;37.43;26.73;;;;;;;7.06;100.00;102316.91;4945191;28;20979;-37
2024/01/25 09:59:56;;;;;;;34.33;27.50;;;;;;;7.13;100.00;102328.66;4932559;29;20433;-38
2024/01/25 10:02:24;;;;;;;31.20;27.20;;;;;;;7.01;100.00;102321.78;4932020;29;20538;-36
2024/01/25 10:04:52;;;;;;;40.43;27.40;;;;;;;7.04;100.00;102325.97;4931426;29;20449;-36
2024/01/25 10:07:39;;;;;;;42.30;28.90;;;;;;;7.19;100.00;102330.78;4931386;28;20460;-38
2024/01/25 10:10:09;;;;;;;33.77;30.03;;;;;;;7.23;100.00;102328.66;4932198;29;20468;-38
2024/01/25 10:12:38;;;;;;;35.20;28.07;;;;;;;7.36;100.00;102315.97;4931269;29;20483;-35
2024/01/25 10:15:08;;;;;;;53.63;28.30;;;;;;;7.44;100.00;102325.91;4931992;29;20489;-39
2024/01/25 10:17:36;;;;;;;30.73;27.60;;;;;;;7.48;100.00;102319.34;4931914;28;21011;-37
2024/01/25 10:20:26;;;;;;;33.63;28.13;;;;;;;7.57;100.00;102318.53;4941170;29;20950;-36
2024/01/25 10:22:58;;;;;;;31.23;27.60;;;;;;;7.67;100.00;102320.22;4949258;29;20440;-36
2024/01/25 10:25:29;;;;;;;36.27;29.07;;;;;;;7.62;100.00;102321.59;4932824;29;20777;-36
2024/01/25 10:27:58;;;;;;;39.80;27.60;;;;;;;7.58;100.00;102330.81;4930865;28;20475;-38
2024/01/25 10:30:26;;;;;;;37.47;28.03;;;;;;;7.61;100.00;102317.28;4939209;29;20723;-38
2024/01/25 10:32:55;;;;;;;34.90;28.90;;;;;;;7.73;100.00;102316.16;4930821;29;20864;-38
2024/01/25 10:35:24;;;;;;;31.67;28.23;;;;;;;7.82;100.00;102331.25;4947921;29;20837;-40
2024/01/25 10:37:53;;;;;;;32.57;28.43;;;;;;;7.85;100.00;102330.97;4936815;28;20536;-39
2024/01/25 10:40:22;;;;;;;31.60;28.47;;;;;;;8.06;100.00;102330.81;4939583;29;20436;-37
2024/01/25 10:42:51;;;;;;;32.33;28.43;;;;;;;8.11;100.00;102328.56;4949351;28;20440;-41
2024/01/25 10:45:20;;;;;;;32.77;29.03;;;;;;;8.04;100.00;102336.25;4950696;29;20439;-35
2024/01/25 10:47:49;;;;;;;35.67;30.03;;;;;;;8.07;100.00;102335.13;4950234;28;20463;-39
2024/01/25 10:50:17;;;;;;;41.17;27.40;;;;;;;8.07;100.00;102322.69;4942202;29;21044;-42
2024/01/25 10:52:47;;;;;;;43.90;27.30;;;;;;;8.12;100.00;102327.59;4950055;29;20442;-40
2024/01/25 10:55:17;;;;;;;29.40;26.43;;;;;;;8.00;100.00;102334.88;4950357;29;20511;-38
2024/01/25 10:57:47;;;;;;;34.60;27.30;;;;;;;7.94;100.00;102327.47;4950112;28;20990;-37
2024/01/25 11:00:17;;;;;;;32.00;28.13;;;;;;;7.95;100.00;102334.44;4941878;29;20457;-37
2024/01/25 11:02:46;;;;;;;31.03;27.50;;;;;;;8.03;100.00;102317.81;4931066;29;20436;-38
2024/01/25 11:05:16;;;;;;;43.27;27.13;;;;;;;8.29;100.00;102318.91;4938457;29;20424;-38
2024/01/25 11:07:45;;;;;;;45.83;28.60;;;;;;;8.21;100.00;102316.13;4949396;28;20538;-39
2024/01/25 11:10:16;;;;;;;45.00;28.90;;;;;;;8.25;100.00;102312.16;4951489;28;20435;-39
2024/01/25 11:12:51;;;;;;;33.03;26.80;;;;;;;8.22;100.00;102321.28;4928521;29;20831;-40
2024/01/25 11:15:32;;;;;;;34.27;27.40;;;;;;;8.38;100.00;102318.06;4931612;29;20438;-38